createdAt,value
2022-10-24T00:00:47.250Z,13.2
2022-10-24T00:05:49.643Z,13.2
2022-10-24T00:10:52.091Z,13.3
2022-10-24T00:15:54.063Z,13.3
2022-10-24T00:20:55.979Z,13.3
2022-10-24T00:25:58.030Z,13.3
2022-10-24T00:30:59.935Z,13.3
2022-10-24T00:36:01.849Z,13.2
2022-10-24T00:41:04.301Z,13.2
2022-10-24T00:46:06.729Z,13.2
2022-10-24T00:56:09.602Z,13.1
2022-10-24T01:01:12.101Z,13.3
2022-10-24T01:06:14.355Z,13.2
2022-10-24T01:11:16.395Z,13.3
2022-10-24T01:16:18.297Z,13.3
2022-10-24T01:21:20.228Z,13.2
2022-10-24T01:26:22.327Z,13.2
2022-10-24T01:31:24.239Z,13.1
2022-10-24T01:36:26.162Z,13.1
2022-10-24T01:41:28.346Z,13
2022-10-24T01:46:30.359Z,13
2022-10-24T01:51:32.251Z,12.9
2022-10-24T01:56:34.660Z,12.9
2022-10-24T02:01:36.639Z,12.9
2022-10-24T02:11:39.955Z,12.9
2022-10-24T02:16:41.885Z,12.9
2022-10-24T02:21:43.771Z,12.9
2022-10-24T02:26:46.260Z,12.9
2022-10-24T02:31:48.244Z,12.9
2022-10-24T02:36:50.162Z,12.9
2022-10-24T02:41:52.508Z,12.8
2022-10-24T02:46:54.621Z,12.8
2022-10-24T02:51:56.553Z,12.8
2022-10-24T02:56:58.869Z,12.7
2022-10-24T03:02:00.807Z,12.7
2022-10-24T03:07:02.730Z,12.6
2022-10-24T03:12:04.858Z,12.5
2022-10-24T03:17:06.951Z,12.5
2022-10-24T03:22:08.839Z,12.5
2022-10-24T03:27:10.826Z,12.5
2022-10-24T03:32:12.848Z,12.5
2022-10-24T03:37:14.918Z,12.5
2022-10-24T03:42:16.818Z,12.5
2022-10-24T03:47:19.393Z,12.5
2022-10-24T03:52:21.372Z,12.4
2022-10-24T03:57:23.806Z,12.4
2022-10-24T04:02:25.917Z,12.4
2022-10-24T04:07:28.274Z,12.4
2022-10-24T04:12:30.733Z,12.3
2022-10-24T04:17:32.725Z,12.3
2022-10-24T04:22:34.802Z,12.2
2022-10-24T04:27:37.269Z,12.1
2022-10-24T04:32:39.505Z,12.1
2022-10-24T04:37:41.631Z,12
2022-10-24T04:42:44.691Z,11.9
2022-10-24T04:47:48.673Z,11.9
2022-10-24T04:52:51.173Z,11.9
2022-10-24T04:57:53.201Z,11.8
2022-10-24T05:03:00.265Z,11.9
2022-10-24T05:08:02.155Z,11.9
2022-10-24T05:13:04.105Z,11.9
2022-10-24T05:18:05.954Z,11.9
2022-10-24T05:23:07.955Z,11.8
2022-10-24T05:28:09.834Z,11.8
2022-10-24T05:33:11.847Z,11.7
2022-10-24T05:38:13.810Z,11.7
2022-10-24T05:43:15.810Z,11.8
2022-10-24T05:48:17.776Z,11.8
2022-10-24T05:53:19.759Z,12
2022-10-24T05:58:21.735Z,12.1
2022-10-24T06:03:23.630Z,12.2
2022-10-24T06:08:25.537Z,12.4
2022-10-24T06:18:28.422Z,12.6
2022-10-24T06:23:30.636Z,12.9
2022-10-24T06:28:32.537Z,13.2
2022-10-24T06:33:34.428Z,13.5
2022-10-24T06:38:36.627Z,13.6
2022-10-24T06:43:38.646Z,13.8
2022-10-24T06:48:41.495Z,13.9
2022-10-24T06:53:43.481Z,13.9
2022-10-24T06:58:45.842Z,14.7
2022-10-24T07:03:48.045Z,14.6
2022-10-24T07:08:50.102Z,14.9
2022-10-24T07:13:55.379Z,17.4
2022-10-24T07:18:53.307Z,17.3
2022-10-24T07:23:55.730Z,22.4
2022-10-24T07:28:58.516Z,21.9
2022-10-24T07:34:00.551Z,21.8
2022-10-24T07:39:02.951Z,21.6
2022-10-24T07:44:05.154Z,21.6
2022-10-24T07:49:07.336Z,22.3
2022-10-24T07:54:09.456Z,22
2022-10-24T07:59:43.483Z,20.2
2022-10-24T08:04:15.444Z,20.3
2022-10-24T08:09:17.598Z,21.5
2022-10-24T08:14:20.182Z,21.9
2022-10-24T08:19:22.334Z,21.9
2022-10-24T08:24:24.758Z,22.6
2022-10-24T08:29:26.948Z,22.5
2022-10-24T08:34:28.940Z,22.9
2022-10-24T08:39:31.347Z,26.4
2022-10-24T08:44:33.339Z,26.3
2022-10-24T08:49:35.427Z,27.3
2022-10-24T08:54:37.357Z,28
2022-10-24T08:59:39.301Z,28.7
2022-10-24T09:04:41.803Z,29.4
2022-10-24T09:09:43.814Z,28.7
2022-10-24T09:14:46.233Z,30.2
2022-10-24T09:19:48.181Z,30.2
2022-10-24T09:24:50.213Z,33.3
2022-10-24T09:29:52.631Z,32
2022-10-24T09:34:54.648Z,34.7
2022-10-24T09:39:56.575Z,34.3
2022-10-24T09:44:58.509Z,30.2
2022-10-24T09:50:00.793Z,27.8
2022-10-24T09:55:02.781Z,26.3
2022-10-24T10:00:05.008Z,25.5
2022-10-24T10:05:07.081Z,24.9
2022-10-24T10:10:09.000Z,24.7
2022-10-24T10:15:11.363Z,25.2
2022-10-24T10:20:20.693Z,26.2
2022-10-24T10:25:22.732Z,26.2
2022-10-24T10:30:24.756Z,30.3
2022-10-24T10:35:26.675Z,33.2
2022-10-24T10:40:28.572Z,34.4
2022-10-24T10:45:30.683Z,33.3
2022-10-24T10:50:32.941Z,30.5
2022-10-24T10:55:34.884Z,27.8
2022-10-24T11:00:37.942Z,29.9
2022-10-24T11:05:40.028Z,29.9
2022-10-24T11:10:42.088Z,31.6
2022-10-24T11:15:44.468Z,27.3
2022-10-24T11:20:46.661Z,27.2
2022-10-24T11:25:48.845Z,26.3
2022-10-24T11:30:50.911Z,25.3
2022-10-24T11:35:52.914Z,24.6
2022-10-24T11:41:02.544Z,24.2
2022-10-24T11:46:04.753Z,24.2
2022-10-24T11:51:07.194Z,24
2022-10-24T11:56:12.131Z,22.7
2022-10-24T12:01:14.151Z,22.7
2022-10-24T12:06:16.145Z,22.5
2022-10-24T12:11:18.114Z,22.3
2022-10-24T12:16:20.306Z,22.2
2022-10-24T12:21:27.508Z,22.7
2022-10-24T12:26:29.478Z,22.7
2022-10-24T12:31:31.528Z,22.5
2022-10-24T12:36:34.333Z,22.3
2022-10-24T12:41:36.252Z,22.1
2022-10-24T12:46:38.656Z,22.5
2022-10-24T12:51:40.827Z,22.5
2022-10-24T12:56:48.181Z,23
2022-10-24T13:01:51.304Z,23.4
2022-10-24T13:06:53.732Z,23.4
2022-10-24T13:11:56.353Z,21.7
2022-10-24T13:16:58.781Z,20.8
2022-10-24T13:22:00.809Z,20.8
2022-10-24T13:27:02.782Z,20.5
2022-10-24T13:32:04.896Z,20.6
2022-10-24T13:37:11.584Z,20.3
2022-10-24T13:42:16.603Z,20.2
2022-10-24T13:47:18.707Z,19.7
2022-10-24T13:52:20.749Z,19.4
2022-10-24T13:57:22.688Z,19.2
2022-10-24T14:02:32.527Z,19.1
2022-10-24T14:07:24.690Z,19
2022-10-24T14:12:26.675Z,19.1
2022-10-24T14:17:29.333Z,19.2
2022-10-24T14:22:31.380Z,19.2
2022-10-24T14:27:33.521Z,19.1
2022-10-24T14:32:35.357Z,18.6
2022-10-24T14:37:37.271Z,18.6
2022-10-24T14:42:41.334Z,18.7
2022-10-24T14:47:44.765Z,18
2022-10-24T14:52:48.652Z,17.7
2022-10-24T14:57:50.605Z,17.7
2022-10-24T15:08:23.590Z,17
2022-10-24T15:12:55.598Z,17
2022-10-24T15:17:58.021Z,16.6
2022-10-24T15:23:00.063Z,16.5
2022-10-24T15:28:02.231Z,16.4
2022-10-24T15:33:04.780Z,16.2
2022-10-24T15:38:08.470Z,16
2022-10-24T15:43:10.350Z,15.9
2022-10-24T15:48:12.373Z,15.8
2022-10-24T15:53:14.642Z,15.7
2022-10-24T15:58:16.604Z,15.6
2022-10-24T16:03:19.003Z,15.3
2022-10-24T16:08:21.019Z,15.3
2022-10-24T16:13:23.085Z,15.1
2022-10-24T16:18:25.047Z,15
2022-10-24T16:23:26.983Z,14.9
2022-10-24T16:28:28.994Z,14.8
2022-10-24T16:33:31.022Z,14.6
2022-10-24T16:38:33.002Z,14.5
2022-10-24T16:43:45.209Z,14.3
2022-10-24T16:48:41.841Z,14.2
2022-10-24T16:53:44.004Z,14.2
2022-10-24T16:58:46.686Z,14.1
2022-10-24T17:03:48.741Z,14
2022-10-24T17:08:50.643Z,14
2022-10-24T17:13:54.845Z,14
2022-10-24T17:19:18.755Z,13.8
2022-10-24T17:24:00.668Z,13.8
2022-10-24T17:29:02.734Z,13.8
2022-10-24T17:34:04.880Z,13.7
2022-10-24T17:39:12.382Z,13.6
2022-10-24T17:44:15.089Z,13.6
2022-10-24T17:49:23.181Z,13.5
2022-10-24T17:54:25.248Z,13.5
2022-10-24T17:59:27.302Z,13.5
2022-10-24T18:04:29.529Z,13.4
2022-10-24T18:09:31.504Z,13.3
2022-10-24T18:14:33.519Z,13.1
2022-10-24T18:19:36.463Z,13.1
2022-10-24T18:24:38.445Z,13.1
2022-10-24T18:34:43.578Z,13.2
2022-10-24T18:39:45.457Z,13.1
2022-10-24T18:44:53.591Z,13.2
2022-10-24T18:49:55.776Z,13.1
2022-10-24T18:55:02.561Z,13.1
2022-10-24T19:00:04.649Z,13.1
2022-10-24T19:05:06.679Z,13.1
2022-10-24T19:10:08.795Z,13.1
2022-10-24T19:15:10.975Z,13
2022-10-24T19:20:15.236Z,12.9
2022-10-24T19:25:17.206Z,12.8
2022-10-24T19:30:19.066Z,12.8
2022-10-24T19:35:20.989Z,12.8
2022-10-24T19:40:22.935Z,12.8
2022-10-24T19:50:27.782Z,12.9
2022-10-24T19:55:29.807Z,13
2022-10-24T20:00:31.778Z,12.9
2022-10-24T20:05:33.682Z,12.9
2022-10-24T20:10:35.479Z,12.8
2022-10-24T20:15:37.641Z,12.7
2022-10-24T20:20:39.507Z,12.8
2022-10-24T20:25:41.333Z,12.8
2022-10-24T20:30:43.241Z,12.9
2022-10-24T20:35:45.203Z,13
2022-10-24T20:40:47.653Z,13
2022-10-24T20:45:49.510Z,12.9
2022-10-24T20:50:51.642Z,13
2022-10-24T20:55:53.679Z,12.9
2022-10-24T21:00:55.715Z,13
2022-10-24T21:05:57.892Z,13
2022-10-24T21:10:59.941Z,13
2022-10-24T21:16:01.851Z,13
2022-10-24T21:21:04.055Z,13
2022-10-24T21:26:06.192Z,13.1
2022-10-24T21:31:08.122Z,13.1
2022-10-24T21:36:10.155Z,13.1
2022-10-24T21:41:12.145Z,13.1
2022-10-24T21:46:14.275Z,13.2
2022-10-24T21:51:16.285Z,13.1
2022-10-24T21:56:18.222Z,13.2
2022-10-24T22:01:20.740Z,13.2
2022-10-24T22:06:23.130Z,13.1
2022-10-24T22:11:25.138Z,13.1
2022-10-24T22:16:27.084Z,13.2
2022-10-24T22:21:29.205Z,13.1
2022-10-24T22:26:31.172Z,13.1
2022-10-24T22:31:33.045Z,13
2022-10-24T22:36:35.031Z,12.9
2022-10-24T22:41:37.151Z,12.8
2022-10-24T22:46:38.973Z,12.7
2022-10-24T22:51:41.035Z,12.7
2022-10-24T22:56:43.134Z,12.7
2022-10-24T23:01:45.582Z,12.7
2022-10-24T23:06:47.799Z,12.6
2022-10-24T23:11:49.815Z,12.6
2022-10-24T23:16:51.675Z,12.7
2022-10-24T23:21:53.648Z,12.7
2022-10-24T23:26:55.895Z,12.8
2022-10-24T23:31:57.937Z,12.9
2022-10-24T23:36:59.968Z,12.9
2022-10-24T23:42:01.855Z,12.8
2022-10-24T23:47:03.842Z,12.9
2022-10-24T23:52:05.744Z,12.9
2022-10-24T23:57:07.759Z,12.9
